Paul Spur, Arizona
Current Conditions -  °F | °C
As of 9:56 PM on Sunday 19 Oct 2014 (Local Time) from KDUG Reporting Station
Clear Clear  
Wind Chill: 57°   Ceiling: Unl
Heat Index: 57°   Visibility: 10mi
Dew Point: 49°   Wind: 5mph
Humidity: 74%   Direction: 330°NNW
Pressure: 30.04"   Gusts: NA
Location:  31.4518°N, 109.329°W
Report Text: KDUG 200456Z AUTO 33004KT 10SM CLR 14/09 A3004 RMK AO2 SLP119 T01390094
Loading
Personal Weather Stations






























Interactive Weather Map
Tropical Storm Tracking
New forecast layout! Learn more

10-Day Weather Forecast

Advertisements
Track Severe Weather on mobile